createdAt,value
2018-08-27T00:08:57.619Z,2.07
2018-08-27T00:11:26.199Z,1.83
2018-08-27T00:13:54.643Z,2.50
2018-08-27T00:16:23.115Z,2.43
2018-08-27T00:18:51.587Z,1.83
2018-08-27T00:21:20.062Z,2.23
2018-08-27T00:23:48.523Z,2.40
2018-08-27T00:26:16.970Z,2.33
2018-08-27T00:28:45.399Z,2.10
2018-08-27T00:31:13.959Z,2.07
2018-08-27T00:33:42.408Z,2.80
2018-08-27T00:36:10.862Z,2.00
2018-08-27T00:38:39.283Z,2.07
2018-08-27T00:41:07.734Z,1.77
2018-08-27T00:43:36.167Z,2.10
2018-08-27T00:46:04.615Z,2.60
2018-08-27T00:48:33.069Z,2.10
2018-08-27T00:51:01.529Z,2.00
2018-08-27T00:53:29.996Z,2.10
2018-08-27T00:55:58.539Z,1.90
2018-08-27T00:58:26.955Z,2.10
2018-08-27T01:00:55.391Z,2.27
2018-08-27T01:03:23.858Z,2.10
2018-08-27T01:05:52.311Z,2.27
2018-08-27T01:08:20.923Z,1.53
2018-08-27T01:10:49.375Z,1.80
2018-08-27T01:13:17.833Z,2.00
2018-08-27T01:15:46.295Z,1.97
2018-08-27T01:18:14.842Z,2.30
2018-08-27T01:20:43.381Z,2.80
2018-08-27T01:23:11.906Z,1.50
2018-08-27T01:25:40.392Z,1.70
2018-08-27T01:28:08.828Z,1.73
2018-08-27T01:30:37.359Z,1.60
2018-08-27T01:33:05.905Z,1.80
2018-08-27T01:35:34.429Z,1.97
2018-08-27T01:38:02.992Z,1.83
2018-08-27T01:40:31.551Z,2.00
2018-08-27T01:43:00.037Z,1.33
2018-08-27T01:45:28.831Z,1.50
2018-08-27T01:47:57.354Z,1.80
2018-08-27T01:50:25.904Z,1.60
2018-08-27T01:52:54.459Z,1.90
2018-08-27T01:55:22.986Z,2.10
2018-08-27T01:57:51.557Z,2.17
2018-08-27T02:00:20.062Z,1.70
2018-08-27T02:02:48.631Z,2.00
2018-08-27T02:05:17.221Z,1.80
2018-08-27T02:07:45.679Z,1.60
2018-08-27T02:10:15.051Z,1.70
2018-08-27T02:12:43.576Z,1.47
2018-08-27T02:15:12.148Z,1.90
2018-08-27T02:17:40.643Z,1.70
2018-08-27T02:20:09.220Z,1.70
2018-08-27T02:22:37.699Z,1.67
2018-08-27T02:25:06.743Z,1.70
2018-08-27T02:27:35.263Z,1.90
2018-08-27T02:30:03.967Z,1.63
2018-08-27T02:32:32.554Z,1.90
2018-08-27T02:35:01.205Z,1.90
2018-08-27T02:37:29.698Z,2.40
2018-08-27T02:39:58.220Z,1.97
2018-08-27T02:42:26.768Z,2.07
2018-08-27T02:44:55.243Z,2.20
2018-08-27T02:47:24.005Z,2.00
2018-08-27T02:49:52.499Z,1.80
2018-08-27T02:52:20.993Z,1.97
2018-08-27T02:54:51.136Z,1.73
2018-08-27T02:57:19.687Z,2.30
2018-08-27T02:59:48.180Z,1.60
2018-08-27T03:02:16.752Z,1.80
2018-08-27T03:04:50.921Z,2.40
2018-08-27T03:07:19.493Z,1.80
2018-08-27T03:09:48.049Z,2.03
2018-08-27T03:12:16.640Z,1.90
2018-08-27T03:14:45.117Z,2.10
2018-08-27T03:17:16.777Z,2.03
2018-08-27T03:19:45.286Z,1.93
2018-08-27T03:22:13.872Z,1.93
2018-08-27T03:24:42.404Z,2.10
2018-08-27T03:27:10.876Z,1.70
2018-08-27T03:29:39.356Z,1.90
2018-08-27T03:32:07.864Z,1.80
2018-08-27T03:34:36.318Z,1.80
2018-08-27T03:37:05.034Z,1.90
2018-08-27T03:39:33.511Z,1.80
2018-08-27T03:42:02.257Z,2.00
2018-08-27T03:44:30.868Z,2.10
2018-08-27T03:46:59.334Z,2.00
2018-08-27T03:49:27.843Z,2.00
2018-08-27T03:51:56.549Z,2.23
2018-08-27T03:54:25.114Z,2.90
2018-08-27T03:56:53.708Z,2.00
2018-08-27T03:59:22.258Z,1.90
2018-08-27T04:01:50.773Z,1.90
2018-08-27T04:04:19.299Z,1.90
2018-08-27T04:06:47.841Z,1.93
2018-08-27T04:09:16.396Z,2.10
2018-08-27T04:11:44.885Z,1.83
2018-08-27T04:14:13.460Z,1.77
2018-08-27T04:16:41.931Z,2.00
2018-08-27T04:19:10.905Z,2.10
2018-08-27T04:21:39.428Z,2.10
2018-08-27T04:24:07.980Z,2.00
2018-08-27T04:26:36.518Z,1.80
2018-08-27T04:29:05.130Z,2.20
2018-08-27T04:31:33.680Z,2.20
2018-08-27T04:34:02.281Z,1.93
2018-08-27T04:36:30.807Z,1.97
2018-08-27T04:38:59.275Z,2.30
2018-08-27T04:41:27.990Z,2.03
2018-08-27T04:43:57.464Z,2.07
2018-08-27T04:46:25.971Z,2.07
2018-08-27T04:48:54.462Z,2.23
2018-08-27T04:51:23.008Z,2.10
2018-08-27T04:53:51.517Z,1.80
2018-08-27T04:56:20.063Z,2.00
2018-08-27T04:58:49.385Z,2.00
2018-08-27T05:01:17.870Z,2.00
2018-08-27T05:03:46.465Z,1.80
2018-08-27T05:06:15.076Z,2.00
2018-08-27T05:08:43.637Z,2.30
2018-08-27T05:11:12.185Z,2.30
2018-08-27T05:13:40.705Z,2.00
2018-08-27T05:16:09.261Z,1.70
2018-08-27T05:18:37.741Z,1.90
2018-08-27T05:21:06.230Z,2.30
2018-08-27T05:23:34.705Z,2.20
2018-08-27T05:26:03.179Z,2.20
2018-08-27T05:28:31.678Z,2.10
2018-08-27T05:31:00.294Z,1.83
2018-08-27T05:33:28.852Z,2.13
2018-08-27T05:35:57.415Z,2.10
2018-08-27T05:38:25.956Z,2.47
2018-08-27T05:40:54.483Z,2.40
2018-08-27T05:43:22.958Z,2.07
2018-08-27T05:45:51.452Z,3.50
2018-08-27T05:48:20.041Z,2.50
2018-08-27T05:50:48.621Z,2.77
2018-08-27T05:53:17.273Z,2.50
2018-08-27T05:55:45.774Z,2.77
2018-08-27T05:58:14.269Z,3.13
2018-08-27T06:00:42.836Z,2.87
2018-08-27T06:03:11.325Z,2.60
2018-08-27T06:05:39.939Z,3.00
2018-08-27T06:08:08.497Z,2.70
2018-08-27T06:10:37.101Z,2.40
2018-08-27T06:13:06.057Z,2.40
2018-08-27T06:15:34.577Z,2.00
2018-08-27T06:18:03.256Z,2.37
2018-08-27T06:20:31.856Z,2.13
2018-08-27T06:23:00.390Z,4.23
2018-08-27T06:25:28.941Z,8.17
2018-08-27T06:27:58.185Z,13.63
2018-08-27T06:30:26.805Z,8.60
2018-08-27T06:32:55.336Z,14.20
2018-08-27T06:35:23.933Z,13.67
2018-08-27T06:37:52.419Z,13.87
2018-08-27T06:40:20.901Z,15.03
2018-08-27T06:42:49.817Z,15.17
2018-08-27T06:45:18.429Z,4.60
2018-08-27T06:47:46.954Z,7.67
2018-08-27T06:50:16.303Z,5.50
2018-08-27T06:52:44.912Z,19.03
2018-08-27T06:55:13.424Z,8.83
2018-08-27T06:57:41.990Z,6.50
2018-08-27T07:00:11.034Z,14.53
2018-08-27T07:02:39.572Z,6.67
2018-08-27T07:05:08.131Z,3.80
2018-08-27T07:07:36.711Z,7.17
2018-08-27T07:10:05.634Z,7.50
2018-08-27T07:12:34.107Z,4.10
2018-08-27T07:15:02.587Z,5.00
2018-08-27T07:17:31.052Z,3.40
2018-08-27T07:19:59.528Z,2.60
2018-08-27T07:22:28.991Z,5.73
2018-08-27T07:24:57.544Z,2.63
2018-08-27T07:27:26.046Z,5.20
2018-08-27T07:29:54.444Z,3.90
2018-08-27T07:32:22.918Z,3.13
2018-08-27T07:34:51.395Z,4.37
2018-08-27T07:37:19.861Z,5.03
2018-08-27T07:39:49.852Z,4.17
2018-08-27T07:42:18.277Z,5.43
2018-08-27T07:44:47.751Z,3.30
2018-08-27T07:47:16.202Z,4.20
2018-08-27T07:49:44.674Z,3.13
2018-08-27T07:52:13.196Z,3.80
2018-08-27T07:54:41.656Z,3.30
2018-08-27T07:57:10.128Z,2.77
2018-08-27T07:59:38.661Z,4.10
2018-08-27T08:02:07.149Z,3.97
2018-08-27T08:04:35.720Z,3.87
2018-08-27T08:07:04.198Z,2.83
2018-08-27T08:09:32.636Z,2.70
2018-08-27T08:12:01.293Z,3.57
2018-08-27T08:14:29.761Z,3.50
2018-08-27T08:16:58.234Z,2.63
2018-08-27T08:19:26.714Z,3.97
2018-08-27T08:21:55.216Z,2.90
2018-08-27T08:24:23.682Z,2.80
2018-08-27T08:26:52.164Z,3.90
2018-08-27T08:29:20.645Z,2.57
2018-08-27T08:31:49.132Z,2.90
2018-08-27T08:34:17.591Z,2.57
2018-08-27T08:36:46.148Z,3.43
2018-08-27T08:39:14.636Z,2.70
2018-08-27T08:41:43.096Z,2.87
2018-08-27T08:44:11.562Z,3.20
2018-08-27T08:46:40.164Z,2.63
2018-08-27T08:49:08.631Z,2.80
2018-08-27T08:51:37.119Z,2.73
2018-08-27T08:54:05.719Z,2.50
2018-08-27T08:56:34.194Z,2.80
2018-08-27T08:59:02.632Z,2.17
2018-08-27T09:01:31.118Z,2.80
2018-08-27T09:03:59.555Z,2.10
2018-08-27T09:06:28.089Z,2.50
2018-08-27T09:08:56.593Z,2.53
2018-08-27T09:11:25.033Z,2.30
2018-08-27T09:13:54.107Z,2.70
2018-08-27T09:16:22.573Z,2.63
2018-08-27T09:18:52.593Z,3.07
2018-08-27T09:21:21.154Z,2.87
2018-08-27T09:23:49.676Z,3.17
2018-08-27T09:26:18.097Z,3.20
2018-08-27T09:28:46.593Z,2.90
2018-08-27T09:31:15.108Z,3.00
2018-08-27T09:33:43.567Z,3.87
2018-08-27T09:36:12.070Z,4.10
2018-08-27T09:38:40.549Z,3.80
2018-08-27T09:41:09.029Z,3.57
2018-08-27T09:43:37.582Z,3.67
2018-08-27T09:46:06.037Z,3.40
2018-08-27T09:48:34.609Z,3.13
2018-08-27T09:51:03.282Z,3.90
2018-08-27T09:53:31.732Z,3.47
2018-08-27T09:56:00.256Z,3.27
2018-08-27T09:58:28.833Z,4.57
2018-08-27T10:01:02.767Z,4.10
2018-08-27T10:03:31.210Z,5.03
2018-08-27T10:05:59.673Z,4.87
2018-08-27T10:08:28.149Z,3.83
2018-08-27T10:10:56.651Z,4.00
2018-08-27T10:13:25.204Z,3.20
2018-08-27T10:15:53.790Z,3.27
2018-08-27T10:18:22.458Z,3.93
2018-08-27T10:20:50.997Z,2.93
2018-08-27T10:23:19.544Z,2.63
2018-08-27T10:25:48.120Z,2.70
2018-08-27T10:28:16.852Z,2.53
2018-08-27T10:30:45.313Z,2.87
2018-08-27T10:33:13.785Z,3.10
2018-08-27T10:35:42.251Z,3.40
2018-08-27T10:38:10.729Z,3.00
2018-08-27T10:40:39.225Z,2.97
2018-08-27T10:43:07.814Z,3.30
2018-08-27T10:45:36.277Z,2.90
2018-08-27T10:48:04.907Z,3.37
2018-08-27T10:50:33.444Z,3.27
2018-08-27T10:53:01.864Z,3.17
2018-08-27T10:55:30.359Z,49.40
2018-08-27T10:57:58.859Z,48.63
2018-08-27T11:00:27.346Z,33.33
2018-08-27T11:02:55.920Z,13.53
2018-08-27T11:05:24.403Z,9.97
2018-08-27T11:07:53.608Z,9.50
2018-08-27T11:10:22.320Z,10.40
2018-08-27T11:12:50.824Z,7.33
2018-08-27T11:15:19.741Z,6.33
2018-08-27T11:17:49.075Z,5.97
2018-08-27T11:20:17.660Z,19.37
2018-08-27T11:22:46.136Z,24.97
2018-08-27T11:25:14.618Z,13.87
2018-08-27T11:27:43.136Z,10.50
2018-08-27T11:30:11.596Z,8.40
2018-08-27T11:32:40.103Z,8.70
2018-08-27T11:35:09.593Z,5.93
2018-08-27T11:37:38.732Z,5.23
2018-08-27T11:40:09.975Z,5.17
2018-08-27T11:42:40.345Z,4.77
2018-08-27T11:45:10.129Z,5.80
2018-08-27T11:47:38.689Z,5.93
2018-08-27T11:50:07.789Z,3.63
2018-08-27T11:52:36.315Z,3.73
2018-08-27T11:55:05.248Z,4.50
2018-08-27T11:57:33.707Z,4.50
2018-08-27T12:00:03.445Z,3.70
2018-08-27T12:02:32.163Z,4.63
2018-08-27T12:05:00.616Z,3.23
2018-08-27T12:07:29.093Z,2.70
2018-08-27T12:09:57.579Z,2.90
2018-08-27T12:12:26.093Z,2.90
2018-08-27T12:14:54.579Z,3.30
2018-08-27T12:17:23.078Z,2.80
2018-08-27T12:19:51.564Z,3.20
2018-08-27T12:22:20.049Z,3.10
2018-08-27T12:24:48.602Z,7.27
2018-08-27T12:27:17.103Z,3.40
2018-08-27T12:29:45.597Z,26.43
2018-08-27T12:32:14.070Z,13.63
2018-08-27T12:34:42.548Z,34.37
2018-08-27T12:37:11.540Z,11.10
2018-08-27T12:39:40.029Z,9.87
2018-08-27T12:42:08.813Z,16.27
2018-08-27T12:44:37.358Z,21.63
2018-08-27T12:47:06.013Z,14.57
2018-08-27T12:49:34.473Z,11.13
2018-08-27T12:52:02.995Z,6.40
2018-08-27T12:54:31.526Z,6.23
2018-08-27T12:57:00.715Z,5.20
2018-08-27T12:59:30.264Z,5.17
2018-08-27T13:01:58.774Z,4.00
2018-08-27T13:04:27.459Z,6.33
2018-08-27T13:06:55.920Z,3.93
2018-08-27T13:09:26.058Z,3.87
2018-08-27T13:11:54.546Z,3.27
2018-08-27T13:14:23.077Z,3.07
2018-08-27T13:16:51.546Z,3.17
2018-08-27T13:19:20.104Z,3.20
2018-08-27T13:21:48.562Z,3.30
2018-08-27T13:24:17.061Z,3.57
2018-08-27T13:26:45.892Z,3.03
2018-08-27T13:29:14.379Z,2.47
2018-08-27T13:31:43.210Z,2.50
2018-08-27T13:34:11.632Z,2.93
2018-08-27T13:36:40.136Z,2.20
2018-08-27T13:39:08.979Z,2.57
2018-08-27T13:41:37.491Z,2.87
2018-08-27T13:44:06.019Z,2.73
2018-08-27T13:46:34.701Z,2.70
2018-08-27T13:49:03.297Z,2.30
2018-08-27T13:51:37.744Z,2.50
2018-08-27T13:54:06.306Z,2.70
2018-08-27T13:56:35.029Z,2.10
2018-08-27T13:59:03.693Z,2.43
2018-08-27T14:01:32.225Z,2.10
2018-08-27T14:04:00.742Z,2.40
2018-08-27T14:06:29.302Z,2.27
2018-08-27T14:08:57.797Z,2.90
2018-08-27T14:11:26.271Z,2.37
2018-08-27T14:13:54.786Z,2.20
2018-08-27T14:16:23.449Z,2.03
2018-08-27T14:18:52.063Z,3.07
2018-08-27T14:21:20.673Z,2.60
2018-08-27T14:23:49.393Z,2.13
2018-08-27T14:26:18.305Z,2.10
2018-08-27T14:28:46.734Z,1.90
2018-08-27T14:31:15.418Z,7.87
2018-08-27T14:33:43.944Z,30.77
2018-08-27T14:36:12.622Z,12.60
2018-08-27T14:38:41.325Z,9.97
2018-08-27T14:41:09.974Z,5.13
2018-08-27T14:43:38.478Z,15.43
2018-08-27T14:46:07.253Z,30.83
2018-08-27T14:48:36.650Z,22.30
2018-08-27T14:51:05.586Z,17.10
2018-08-27T14:53:35.107Z,16.43
2018-08-27T14:56:04.668Z,10.27
2018-08-27T14:58:33.209Z,9.77
2018-08-27T15:01:06.843Z,5.67
2018-08-27T15:03:35.312Z,3.77
2018-08-27T15:06:03.836Z,7.37
2018-08-27T15:08:32.404Z,10.23
2018-08-27T15:11:00.933Z,6.00
2018-08-27T15:13:29.408Z,9.77
2018-08-27T15:15:57.956Z,8.50
2018-08-27T15:18:26.421Z,8.73
2018-08-27T15:20:54.993Z,7.40
2018-08-27T15:23:23.969Z,10.00
2018-08-27T15:25:52.423Z,7.80
2018-08-27T15:28:20.876Z,5.07
2018-08-27T15:30:49.385Z,3.90
2018-08-27T15:33:17.942Z,3.60
2018-08-27T15:35:46.424Z,3.40
2018-08-27T15:38:14.928Z,3.00
2018-08-27T15:40:43.383Z,3.20
2018-08-27T15:43:11.848Z,3.13
2018-08-27T15:45:45.772Z,2.53
2018-08-27T15:48:14.825Z,2.00
2018-08-27T15:50:43.406Z,2.27
2018-08-27T15:53:11.917Z,2.50
2018-08-27T15:55:42.416Z,3.03
2018-08-27T15:58:12.111Z,2.70
2018-08-27T16:00:40.583Z,2.30
2018-08-27T16:03:09.087Z,3.30
2018-08-27T16:05:37.624Z,2.87
2018-08-27T16:08:06.010Z,4.63
2018-08-27T16:10:34.460Z,5.43
2018-08-27T16:13:02.987Z,4.97
2018-08-27T16:15:32.061Z,5.70
2018-08-27T16:18:00.597Z,5.90
2018-08-27T16:20:29.205Z,4.87
2018-08-27T16:22:57.751Z,3.80
2018-08-27T16:25:26.890Z,3.80
2018-08-27T16:27:55.444Z,3.57
2018-08-27T16:30:23.897Z,3.43
2018-08-27T16:32:52.388Z,3.53
2018-08-27T16:35:20.877Z,2.20
2018-08-27T16:37:49.361Z,3.00
2018-08-27T16:40:17.844Z,2.90
2018-08-27T16:42:47.244Z,3.83
2018-08-27T16:45:15.724Z,4.07
2018-08-27T16:47:44.183Z,12.63
2018-08-27T16:50:12.650Z,6.03
2018-08-27T16:52:41.171Z,8.73
2018-08-27T16:55:09.657Z,16.53
2018-08-27T16:57:38.179Z,5.20
2018-08-27T17:00:08.157Z,7.90
2018-08-27T17:02:36.632Z,6.70
2018-08-27T17:05:05.105Z,5.47
2018-08-27T17:07:33.612Z,5.87
2018-08-27T17:10:02.171Z,5.47
2018-08-27T17:12:30.539Z,13.03
2018-08-27T17:14:59.019Z,20.43
2018-08-27T17:17:27.524Z,22.83
2018-08-27T17:19:56.032Z,27.83
2018-08-27T17:22:24.734Z,14.17
2018-08-27T17:24:53.409Z,19.13
2018-08-27T17:27:21.899Z,14.40
2018-08-27T17:29:50.370Z,12.57
2018-08-27T17:32:18.941Z,10.23
2018-08-27T17:34:47.717Z,9.37
2018-08-27T17:37:16.333Z,7.97
2018-08-27T17:39:44.916Z,7.93
2018-08-27T17:42:13.545Z,9.20
2018-08-27T17:44:42.018Z,8.13
2018-08-27T17:47:10.708Z,5.53
2018-08-27T17:49:39.284Z,6.30
2018-08-27T17:52:07.765Z,4.80
2018-08-27T17:54:36.247Z,7.73
2018-08-27T17:57:04.755Z,4.77
2018-08-27T17:59:33.239Z,4.70
2018-08-27T18:02:01.724Z,5.10
2018-08-27T18:04:30.237Z,4.80
2018-08-27T18:06:58.746Z,4.30
2018-08-27T18:09:28.165Z,4.07
2018-08-27T18:11:56.781Z,3.87
2018-08-27T18:14:25.361Z,4.17
2018-08-27T18:16:53.885Z,4.50
2018-08-27T18:19:22.397Z,4.53
2018-08-27T18:21:50.868Z,4.10
2018-08-27T18:24:19.392Z,6.33
2018-08-27T18:26:48.132Z,7.10
2018-08-27T18:29:16.581Z,5.47
2018-08-27T18:31:45.084Z,5.43
2018-08-27T18:34:13.549Z,4.57
2018-08-27T18:36:42.040Z,3.93
2018-08-27T18:39:10.574Z,4.37
2018-08-27T18:41:39.009Z,4.43
2018-08-27T18:44:07.745Z,5.10
2018-08-27T18:46:36.233Z,6.70
2018-08-27T18:49:04.785Z,7.10
2018-08-27T18:51:33.282Z,7.13
2018-08-27T18:54:01.754Z,6.67
2018-08-27T18:56:30.597Z,10.67
2018-08-27T18:58:59.192Z,48.93
2018-08-27T19:01:33.033Z,46.70
2018-08-27T19:04:01.742Z,19.70
2018-08-27T19:06:30.321Z,12.83
2018-08-27T19:08:58.905Z,6.93
2018-08-27T19:11:28.136Z,5.43
2018-08-27T19:13:56.646Z,6.23
2018-08-27T19:16:25.100Z,4.23
2018-08-27T19:18:53.656Z,4.50
2018-08-27T19:21:22.322Z,4.13
2018-08-27T19:23:50.876Z,4.17
2018-08-27T19:26:20.155Z,4.10
2018-08-27T19:28:48.806Z,17.87
2018-08-27T19:31:17.294Z,50.57
2018-08-27T19:33:46.075Z,41.37
2018-08-27T19:36:14.780Z,63.03
2018-08-27T19:38:43.164Z,38.90
2018-08-27T19:41:11.701Z,35.07
2018-08-27T19:43:40.273Z,17.57
2018-08-27T19:46:08.879Z,11.17
2018-08-27T19:48:37.353Z,5.43
2018-08-27T19:51:05.852Z,6.57
2018-08-27T19:53:34.386Z,6.30
2018-08-27T19:56:03.249Z,4.60
2018-08-27T19:58:32.089Z,3.60
2018-08-27T20:01:00.592Z,3.30
2018-08-27T20:03:29.241Z,2.70
2018-08-27T20:05:57.943Z,3.43
2018-08-27T20:08:26.420Z,3.73
2018-08-27T20:10:54.953Z,3.33
2018-08-27T20:13:23.694Z,3.40
2018-08-27T20:15:52.193Z,2.97
2018-08-27T20:18:20.760Z,3.40
2018-08-27T20:20:49.284Z,6.50
2018-08-27T20:23:17.928Z,8.43
2018-08-27T20:25:46.563Z,16.30
2018-08-27T20:28:15.107Z,21.40
2018-08-27T20:30:43.623Z,34.93
2018-08-27T20:33:12.104Z,29.43
2018-08-27T20:35:40.577Z,20.13
2018-08-27T20:38:09.354Z,29.43
2018-08-27T20:40:37.859Z,18.27
2018-08-27T20:43:06.408Z,31.13
2018-08-27T20:45:34.906Z,10.27
2018-08-27T20:48:03.686Z,11.13
2018-08-27T20:50:33.931Z,6.90
2018-08-27T20:53:02.561Z,5.33
2018-08-27T20:55:31.045Z,6.57
2018-08-27T20:58:00.252Z,7.13
2018-08-27T21:00:28.760Z,4.93
2018-08-27T21:02:57.440Z,3.90
2018-08-27T21:05:25.903Z,4.77
2018-08-27T21:07:54.365Z,24.40
2018-08-27T21:10:23.991Z,25.33
2018-08-27T21:12:52.510Z,55.90
2018-08-27T21:15:20.975Z,57.73
2018-08-27T21:17:51.644Z,37.70
2018-08-27T21:20:21.069Z,33.37
2018-08-27T21:22:52.614Z,22.70
2018-08-27T21:25:21.693Z,13.37
2018-08-27T21:27:52.906Z,14.43
2018-08-27T21:30:22.314Z,9.77
2018-08-27T21:32:51.848Z,7.10
2018-08-27T21:35:20.468Z,8.20
2018-08-27T21:37:49.034Z,3.83
2018-08-27T21:40:17.687Z,3.77
2018-08-27T21:42:46.545Z,3.63
2018-08-27T21:45:15.200Z,3.10
2018-08-27T21:47:43.755Z,3.33
2018-08-27T21:50:12.472Z,10.33
2018-08-27T21:52:40.973Z,20.03
2018-08-27T21:55:09.540Z,25.67
2018-08-27T21:57:38.106Z,16.00
2018-08-27T22:00:07.109Z,11.33
2018-08-27T22:02:41.006Z,7.60
2018-08-27T22:13:24.832Z,3.00
2018-08-27T22:15:53.294Z,3.00
2018-08-27T22:18:21.880Z,3.20
2018-08-27T22:20:50.368Z,3.90
2018-08-27T22:23:18.844Z,3.47
2018-08-27T22:25:47.305Z,7.53
2018-08-27T22:28:15.788Z,17.70
2018-08-27T22:30:44.278Z,17.00
2018-08-27T22:33:12.740Z,12.03
2018-08-27T22:35:41.341Z,17.07
2018-08-27T22:38:09.838Z,10.07
2018-08-27T22:40:38.309Z,9.23
2018-08-27T22:43:06.803Z,17.43
2018-08-27T22:45:35.360Z,6.37
2018-08-27T22:48:03.827Z,5.33
2018-08-27T22:50:32.285Z,5.53
2018-08-27T22:53:01.313Z,6.33
2018-08-27T22:55:29.764Z,4.90
2018-08-27T22:57:58.248Z,4.37
2018-08-27T23:00:26.723Z,4.70
2018-08-27T23:03:01.376Z,5.00
2018-08-27T23:05:30.036Z,3.80
2018-08-27T23:07:58.592Z,3.90
2018-08-27T23:10:27.071Z,4.23
2018-08-27T23:12:55.555Z,3.40
2018-08-27T23:15:24.013Z,3.67
2018-08-27T23:17:52.648Z,4.33
2018-08-27T23:20:21.099Z,4.23
2018-08-27T23:22:49.556Z,4.50
2018-08-27T23:25:18.112Z,4.63
2018-08-27T23:27:46.628Z,3.93
2018-08-27T23:30:15.069Z,4.67
2018-08-27T23:32:43.651Z,8.23
2018-08-27T23:35:12.147Z,6.97
2018-08-27T23:37:40.646Z,10.43
2018-08-27T23:40:09.135Z,21.63
2018-08-27T23:42:37.824Z,25.90
2018-08-27T23:45:06.312Z,27.93
2018-08-27T23:47:35.016Z,17.17
2018-08-27T23:50:03.568Z,21.20
2018-08-27T23:52:32.144Z,17.00
2018-08-27T23:55:00.903Z,16.87
2018-08-27T23:57:29.367Z,8.67
2018-08-27T23:59:57.844Z,9.50
